createdAt,value
2018-11-13T00:00:30.264Z,93.70
2018-11-13T00:03:00.101Z,93.70
2018-11-13T00:05:29.590Z,93.70
2018-11-13T00:07:58.969Z,93.60
2018-11-13T00:10:28.471Z,93.60
2018-11-13T00:12:57.912Z,93.60
2018-11-13T00:15:27.203Z,93.60
2018-11-13T00:17:56.537Z,93.50
2018-11-13T00:20:25.795Z,93.60
2018-11-13T00:22:55.292Z,93.60
2018-11-13T00:25:24.830Z,93.60
2018-11-13T00:27:54.408Z,93.60
2018-11-13T00:30:24.921Z,93.60
2018-11-13T00:32:54.178Z,93.60
2018-11-13T00:35:23.665Z,93.60
2018-11-13T00:37:53.358Z,93.50
2018-11-13T00:40:22.593Z,93.50
2018-11-13T00:42:51.847Z,93.40
2018-11-13T00:45:21.737Z,93.50
2018-11-13T00:47:51.109Z,93.40
2018-11-13T00:50:21.289Z,93.40
2018-11-13T00:52:50.812Z,93.40
2018-11-13T00:55:20.118Z,93.30
2018-11-13T00:57:49.254Z,93.40
2018-11-13T01:00:19.791Z,93.40
2018-11-13T01:02:49.048Z,93.40
2018-11-13T01:05:19.620Z,93.40
2018-11-13T01:07:50.186Z,93.40
2018-11-13T01:10:20.337Z,93.40
2018-11-13T01:12:49.838Z,93.40
2018-11-13T01:15:20.531Z,93.40
2018-11-13T01:17:50.232Z,93.50
2018-11-13T01:20:19.892Z,93.40
2018-11-13T01:22:49.312Z,93.40
2018-11-13T01:25:18.723Z,93.40
2018-11-13T01:27:48.079Z,93.40
2018-11-13T01:30:17.812Z,93.30
2018-11-13T01:32:47.206Z,93.40
2018-11-13T01:35:17.558Z,93.40
2018-11-13T01:37:47.136Z,93.40
2018-11-13T01:40:17.907Z,93.40
2018-11-13T01:42:47.275Z,93.40
2018-11-13T01:45:17.592Z,93.40
2018-11-13T01:47:46.930Z,93.40
2018-11-13T01:50:16.617Z,93.40
2018-11-13T01:52:46.142Z,93.40
2018-11-13T01:55:16.339Z,93.40
2018-11-13T01:57:45.938Z,93.40
2018-11-13T02:00:22.208Z,93.40
2018-11-13T02:02:52.846Z,93.50
2018-11-13T02:05:25.840Z,93.40
2018-11-13T02:07:55.815Z,93.60
2018-11-13T02:10:25.373Z,93.50
2018-11-13T02:12:54.744Z,93.50
2018-11-13T02:15:24.129Z,93.50
2018-11-13T02:17:53.467Z,93.50
2018-11-13T02:20:23.476Z,93.60
2018-11-13T02:22:52.965Z,93.70
2018-11-13T02:25:22.287Z,93.60
2018-11-13T02:27:51.647Z,93.70
2018-11-13T02:30:24.194Z,93.70
2018-11-13T02:32:53.877Z,93.70
2018-11-13T02:35:23.105Z,93.70
2018-11-13T02:37:52.577Z,93.70
2018-11-13T02:40:21.914Z,93.80
2018-11-13T02:42:51.252Z,93.80
2018-11-13T02:45:21.009Z,93.80
2018-11-13T02:47:50.571Z,93.80
2018-11-13T02:50:20.896Z,93.90
2018-11-13T02:52:50.183Z,93.90
2018-11-13T02:55:19.751Z,94.20
2018-11-13T02:57:49.217Z,93.90
2018-11-13T03:00:22.379Z,93.80
2018-11-13T03:02:51.838Z,93.70
2018-11-13T03:05:22.061Z,93.80
2018-11-13T03:07:51.446Z,93.80
2018-11-13T03:10:21.292Z,93.80
2018-11-13T03:12:50.774Z,93.90
2018-11-13T03:15:21.097Z,94.00
2018-11-13T03:17:50.402Z,94.00
2018-11-13T03:20:20.416Z,94.00
2018-11-13T03:25:20.590Z,94.00
2018-11-13T03:27:49.843Z,94.00
2018-11-13T03:30:23.465Z,94.00
2018-11-13T03:32:52.872Z,94.10
2018-11-13T03:35:22.061Z,94.10
2018-11-13T03:37:51.252Z,94.10
2018-11-13T03:40:20.439Z,94.10
2018-11-13T03:42:50.362Z,94.10
2018-11-13T03:45:19.761Z,94.20
2018-11-13T03:47:49.116Z,94.20
2018-11-13T03:50:22.282Z,94.10
2018-11-13T03:52:51.611Z,94.10
2018-11-13T03:55:21.525Z,94.10
2018-11-13T03:57:51.343Z,94.10
2018-11-13T04:00:24.175Z,94.20
2018-11-13T04:02:53.917Z,94.30
2018-11-13T04:05:23.400Z,94.30
2018-11-13T04:07:53.899Z,94.30
2018-11-13T04:10:24.006Z,94.40
2018-11-13T04:12:53.338Z,94.30
2018-11-13T04:15:23.934Z,94.30
2018-11-13T04:17:53.213Z,94.40
2018-11-13T04:20:23.288Z,94.80
2018-11-13T04:22:52.797Z,94.50
2018-11-13T04:25:22.130Z,94.60
2018-11-13T04:27:51.739Z,94.60
2018-11-13T04:30:21.112Z,94.60
2018-11-13T04:32:50.673Z,94.70
2018-11-13T04:35:20.244Z,94.80
2018-11-13T04:37:49.721Z,95.00
2018-11-13T04:40:20.180Z,94.80
2018-11-13T04:42:53.307Z,94.80
2018-11-13T04:45:23.975Z,94.80
2018-11-13T04:47:53.425Z,94.80
2018-11-13T04:50:23.502Z,94.70
2018-11-13T04:52:52.913Z,94.70
2018-11-13T04:55:22.767Z,94.70
2018-11-13T04:57:52.116Z,94.70
2018-11-13T05:00:22.650Z,94.80
2018-11-13T05:02:52.035Z,94.70
2018-11-13T05:05:22.292Z,94.70
2018-11-13T05:07:52.920Z,94.60
2018-11-13T05:10:22.472Z,94.70
2018-11-13T05:12:51.728Z,94.70
2018-11-13T05:15:21.528Z,94.70
2018-11-13T05:17:50.735Z,94.70
2018-11-13T05:20:20.020Z,94.80
2018-11-13T05:22:49.641Z,94.80
2018-11-13T05:25:20.261Z,94.90
2018-11-13T05:27:49.776Z,94.90
2018-11-13T05:30:20.621Z,94.80
2018-11-13T05:32:50.249Z,94.90
2018-11-13T05:35:20.540Z,94.80
2018-11-13T05:37:50.358Z,94.90
2018-11-13T05:40:21.029Z,94.90
2018-11-13T05:42:50.280Z,94.90
2018-11-13T05:45:21.131Z,95.00
2018-11-13T05:47:50.546Z,95.00
2018-11-13T05:50:20.336Z,94.90
2018-11-13T05:52:50.961Z,94.90
2018-11-13T05:55:20.163Z,94.90
2018-11-13T05:57:49.380Z,95.00
2018-11-13T06:00:24.192Z,95.30
2018-11-13T06:02:53.343Z,95.00
2018-11-13T06:05:22.610Z,95.40
2018-11-13T06:07:51.989Z,95.00
2018-11-13T06:10:21.463Z,95.00
2018-11-13T06:12:50.780Z,94.90
2018-11-13T06:15:20.605Z,95.00
2018-11-13T06:17:49.959Z,94.80
2018-11-13T06:20:19.430Z,94.90
2018-11-13T06:22:49.038Z,94.80
2018-11-13T06:25:18.690Z,94.80
2018-11-13T06:27:48.891Z,94.80
2018-11-13T06:30:22.778Z,94.80
2018-11-13T06:32:52.400Z,94.80
2018-11-13T06:35:21.829Z,94.70
2018-11-13T06:37:51.103Z,94.70
2018-11-13T06:40:20.307Z,94.60
2018-11-13T06:42:50.831Z,94.60
2018-11-13T06:45:21.470Z,94.60
2018-11-13T06:47:50.788Z,94.60
2018-11-13T06:50:20.104Z,94.60
2018-11-13T06:52:50.210Z,94.60
2018-11-13T06:55:32.928Z,94.60
2018-11-13T06:58:02.895Z,95.00
2018-11-13T07:00:32.220Z,95.00
2018-11-13T07:03:01.624Z,94.70
2018-11-13T07:05:31.169Z,94.70
2018-11-13T07:08:00.524Z,94.70
2018-11-13T07:10:30.384Z,95.00
2018-11-13T07:12:59.947Z,94.70
2018-11-13T07:15:30.378Z,94.60
2018-11-13T07:18:00.828Z,94.50
2018-11-13T07:20:31.333Z,94.50
2018-11-13T07:23:00.481Z,94.60
2018-11-13T07:25:29.705Z,94.60
2018-11-13T07:27:58.868Z,94.60
2018-11-13T07:30:28.637Z,94.60
2018-11-13T07:32:57.785Z,94.50
2018-11-13T07:35:26.974Z,94.40
2018-11-13T07:38:00.187Z,94.40
2018-11-13T07:40:29.968Z,94.30
2018-11-13T07:42:59.120Z,94.30
2018-11-13T07:45:28.325Z,94.30
2018-11-13T07:47:57.553Z,94.40
2018-11-13T07:50:26.618Z,94.30
2018-11-13T07:52:55.737Z,94.70
2018-11-13T07:55:24.979Z,94.60
2018-11-13T07:57:54.110Z,94.30
2018-11-13T08:00:24.589Z,94.20
2018-11-13T08:02:55.288Z,94.20
2018-11-13T08:05:24.554Z,94.20
2018-11-13T08:07:54.277Z,94.20
2018-11-13T08:10:23.636Z,94.20
2018-11-13T08:12:52.980Z,94.10
2018-11-13T08:15:22.093Z,94.10
2018-11-13T08:17:51.520Z,94.00
2018-11-13T08:20:20.989Z,94.10
2018-11-13T08:22:50.517Z,94.10
2018-11-13T08:25:20.254Z,94.10
2018-11-13T08:27:49.439Z,94.10
2018-11-13T08:30:19.639Z,94.00
2018-11-13T08:32:51.252Z,94.00
2018-11-13T08:35:20.576Z,94.00
2018-11-13T08:37:50.089Z,94.10
2018-11-13T08:40:19.610Z,93.90
2018-11-13T08:42:49.011Z,93.90
2018-11-13T08:45:18.418Z,93.80
2018-11-13T08:47:47.566Z,93.70
2018-11-13T08:50:17.070Z,93.70
2018-11-13T08:52:46.916Z,93.70
2018-11-13T08:55:16.369Z,93.70
2018-11-13T08:57:46.035Z,93.60
2018-11-13T09:00:16.655Z,93.50
2018-11-13T09:02:46.605Z,93.50
2018-11-13T09:05:16.287Z,93.30
2018-11-13T09:07:45.578Z,93.60
2018-11-13T09:10:16.026Z,93.30
2018-11-13T09:12:45.857Z,93.20
2018-11-13T09:15:16.564Z,93.10
2018-11-13T09:17:45.789Z,92.90
2018-11-13T09:20:16.232Z,92.80
2018-11-13T09:22:45.561Z,92.80
2018-11-13T09:25:21.725Z,92.70
2018-11-13T09:27:50.907Z,92.60
2018-11-13T09:30:22.481Z,92.50
2018-11-13T09:32:51.572Z,92.50
2018-11-13T09:35:21.014Z,92.50
2018-11-13T09:37:50.173Z,92.50
2018-11-13T09:40:20.642Z,92.50
2018-11-13T09:42:51.161Z,92.50
2018-11-13T09:45:20.372Z,92.40
2018-11-13T09:47:49.626Z,92.70
2018-11-13T09:50:20.000Z,92.50
2018-11-13T09:52:50.530Z,92.50
2018-11-13T09:55:21.173Z,92.50
2018-11-13T09:57:50.725Z,92.60
2018-11-13T10:00:21.817Z,92.60
2018-11-13T10:02:52.988Z,92.70
2018-11-13T10:05:22.138Z,92.70
2018-11-13T10:07:51.756Z,92.80
2018-11-13T10:10:21.000Z,93.00
2018-11-13T10:12:50.102Z,93.10
2018-11-13T10:15:29.616Z,93.20
2018-11-13T10:17:59.264Z,93.20
2018-11-13T10:20:28.228Z,93.10
2018-11-13T10:22:58.371Z,93.10
2018-11-13T10:25:27.484Z,93.10
2018-11-13T10:27:56.591Z,93.10
2018-11-13T10:30:26.226Z,93.00
2018-11-13T10:32:55.725Z,92.90
2018-11-13T10:35:25.952Z,92.90
2018-11-13T10:37:55.120Z,92.80
2018-11-13T10:40:24.624Z,92.80
2018-11-13T10:42:54.267Z,92.70
2018-11-13T10:45:27.717Z,92.80
2018-11-13T10:47:56.963Z,92.80
2018-11-13T10:50:27.035Z,92.80
2018-11-13T10:52:56.392Z,92.70
2018-11-13T10:55:25.558Z,92.60
2018-11-13T10:57:54.675Z,92.50
2018-11-13T11:00:41.243Z,92.30
2018-11-13T11:03:28.067Z,92.30
2018-11-13T11:05:57.230Z,92.30
2018-11-13T11:08:26.355Z,92.10
2018-11-13T11:10:55.514Z,92.00
2018-11-13T11:13:24.743Z,91.90
2018-11-13T11:15:53.803Z,91.80
2018-11-13T11:18:22.946Z,91.30
2018-11-13T11:20:52.169Z,89.50
2018-11-13T11:23:21.413Z,82.60
2018-11-13T11:25:50.596Z,74.80
2018-11-13T11:28:19.790Z,74.00
2018-11-13T11:30:48.929Z,74.80
2018-11-13T11:33:18.047Z,74.80
2018-11-13T11:35:47.194Z,75.70
2018-11-13T11:38:16.336Z,76.60
2018-11-13T11:40:45.514Z,77.50
2018-11-13T11:43:14.684Z,78.50
2018-11-13T11:45:43.817Z,79.40
2018-11-13T11:48:12.964Z,80.30
2018-11-13T11:50:42.127Z,80.90
2018-11-13T11:53:11.271Z,81.60
2018-11-13T11:55:40.420Z,82.50
2018-11-13T11:58:09.588Z,82.80
2018-11-13T12:00:38.902Z,83.10
2018-11-13T12:03:08.523Z,83.10
2018-11-13T12:05:37.853Z,83.30
2018-11-13T12:08:07.028Z,83.60
2018-11-13T12:10:36.290Z,84.70
2018-11-13T12:13:05.695Z,84.30
2018-11-13T12:15:35.160Z,84.40
2018-11-13T12:18:04.532Z,84.20
2018-11-13T12:20:33.962Z,84.30
2018-11-13T12:23:03.097Z,83.60
2018-11-13T12:25:32.718Z,82.30
2018-11-13T12:28:02.083Z,80.50
2018-11-13T12:30:31.489Z,78.90
2018-11-13T12:33:00.602Z,78.40
2018-11-13T12:35:29.790Z,77.20
2018-11-13T12:37:59.225Z,76.20
2018-11-13T12:40:28.391Z,74.20
2018-11-13T12:42:57.646Z,71.10
2018-11-13T12:45:26.772Z,67.40
2018-11-13T12:47:55.904Z,64.30
2018-11-13T12:50:25.084Z,61.20
2018-11-13T12:52:54.282Z,60.50
2018-11-13T12:55:24.157Z,58.70
2018-11-13T12:57:53.403Z,58.40
2018-11-13T13:00:24.294Z,59.50
2018-11-13T13:02:53.511Z,61.20
2018-11-13T13:05:22.812Z,63.40
2018-11-13T13:07:51.928Z,65.60
2018-11-13T13:10:21.827Z,67.60
2018-11-13T13:12:51.022Z,69.20
2018-11-13T13:15:20.575Z,70.50
2018-11-13T13:17:49.695Z,71.80
2018-11-13T13:20:23.123Z,72.80
2018-11-13T13:22:52.505Z,73.80
2018-11-13T13:25:22.643Z,74.60
2018-11-13T13:27:51.826Z,75.00
2018-11-13T13:30:23.200Z,75.30
2018-11-13T13:32:52.567Z,75.70
2018-11-13T13:35:47.496Z,76.10
2018-11-13T13:38:16.656Z,76.70
2018-11-13T13:40:46.927Z,77.30
2018-11-13T13:43:16.631Z,77.90
2018-11-13T13:45:46.671Z,78.20
2018-11-13T13:48:15.867Z,78.60
2018-11-13T13:50:45.019Z,79.00
2018-11-13T13:53:15.168Z,79.20
2018-11-13T13:55:44.515Z,79.50
2018-11-13T13:58:14.470Z,79.70
2018-11-13T14:00:43.705Z,80.00
2018-11-13T14:03:13.478Z,80.00
2018-11-13T14:05:42.995Z,80.50
2018-11-13T14:08:13.038Z,80.70
2018-11-13T14:10:42.403Z,80.90
2018-11-13T14:13:11.876Z,81.40
2018-11-13T14:15:41.043Z,81.70
2018-11-13T14:18:10.334Z,82.80
2018-11-13T14:20:39.503Z,82.30
2018-11-13T14:23:08.655Z,82.30
2018-11-13T14:25:38.100Z,82.30
2018-11-13T14:28:07.394Z,82.40
2018-11-13T14:30:37.719Z,82.60
2018-11-13T14:33:08.461Z,82.70
2018-11-13T14:35:37.669Z,82.80
2018-11-13T14:38:06.974Z,83.20
2018-11-13T14:40:40.259Z,83.40
2018-11-13T14:43:09.760Z,83.60
2018-11-13T14:45:38.931Z,83.60
2018-11-13T14:48:08.637Z,83.80
2018-11-13T14:50:38.206Z,83.90
2018-11-13T14:53:07.880Z,84.10
2018-11-13T14:55:38.359Z,84.10
2018-11-13T14:58:08.620Z,84.10
2018-11-13T15:00:38.430Z,84.40
2018-11-13T15:03:08.716Z,84.80
2018-11-13T15:05:37.969Z,84.70
2018-11-13T15:08:08.126Z,84.90
2018-11-13T15:10:48.050Z,85.20
2018-11-13T15:13:17.773Z,85.20
2018-11-13T15:15:47.180Z,85.40
2018-11-13T15:18:16.407Z,85.50
2018-11-13T15:20:46.827Z,85.50
2018-11-13T15:23:16.511Z,85.70
2018-11-13T15:25:45.775Z,86.00
2018-11-13T15:28:15.563Z,86.10
2018-11-13T15:30:46.222Z,86.30
2018-11-13T15:33:22.447Z,86.20
2018-11-13T15:35:52.007Z,86.20
2018-11-13T15:38:21.333Z,86.10
2018-11-13T15:40:50.496Z,85.90
2018-11-13T15:43:19.746Z,85.80
2018-11-13T15:45:48.846Z,85.70
2018-11-13T15:48:18.289Z,85.60
2018-11-13T15:50:47.387Z,85.70
2018-11-13T15:53:16.812Z,85.70
2018-11-13T15:55:45.985Z,85.80
2018-11-13T15:58:15.313Z,85.70
2018-11-13T16:00:44.610Z,85.60
2018-11-13T16:03:18.460Z,85.40
2018-11-13T16:05:49.383Z,85.40
2018-11-13T16:08:18.565Z,85.40
2018-11-13T16:10:47.740Z,85.30
2018-11-13T16:13:17.099Z,85.30
2018-11-13T16:15:46.766Z,85.30
2018-11-13T16:18:17.674Z,85.20
2018-11-13T16:20:47.210Z,85.30
2018-11-13T16:23:16.699Z,85.30
2018-11-13T16:25:46.008Z,85.30
2018-11-13T16:28:15.256Z,85.10
2018-11-13T16:30:45.019Z,85.00
2018-11-13T16:33:14.288Z,85.10
2018-11-13T16:35:43.424Z,85.00
2018-11-13T16:38:13.422Z,84.90
2018-11-13T16:40:42.578Z,84.90
2018-11-13T16:43:11.944Z,84.70
2018-11-13T16:45:41.384Z,84.70
2018-11-13T16:48:10.762Z,84.60
2018-11-13T16:50:41.491Z,84.60
2018-11-13T16:53:10.794Z,84.70
2018-11-13T16:56:04.744Z,84.80
2018-11-13T16:58:34.466Z,84.90
2018-11-13T17:01:03.836Z,85.10
2018-11-13T17:03:33.218Z,85.00
2018-11-13T17:06:02.551Z,85.20
2018-11-13T17:08:31.781Z,85.10
2018-11-13T17:11:01.259Z,85.10
2018-11-13T17:13:30.607Z,85.10
2018-11-13T17:16:00.102Z,85.00
2018-11-13T17:18:29.336Z,85.20
2018-11-13T17:20:58.712Z,85.10
2018-11-13T17:23:28.365Z,85.10
2018-11-13T17:25:58.138Z,85.00
2018-11-13T17:28:27.415Z,85.20
2018-11-13T17:30:57.260Z,85.10
2018-11-13T17:33:26.767Z,85.10
2018-11-13T17:35:56.070Z,85.20
2018-11-13T17:38:25.448Z,85.30
2018-11-13T17:40:54.773Z,85.30
2018-11-13T17:43:24.066Z,85.40
2018-11-13T17:45:53.194Z,85.40
2018-11-13T17:48:22.512Z,85.50
2018-11-13T17:50:51.861Z,85.50
2018-11-13T17:53:21.515Z,85.60
2018-11-13T17:55:50.631Z,85.50
2018-11-13T17:58:19.829Z,85.70
2018-11-13T18:00:49.363Z,85.70
2018-11-13T18:03:19.088Z,85.70
2018-11-13T18:05:49.305Z,85.60
2018-11-13T18:08:18.827Z,85.40
2018-11-13T18:10:48.488Z,85.30
2018-11-13T18:13:17.915Z,85.20
2018-11-13T18:15:47.214Z,85.10
2018-11-13T18:18:16.636Z,84.80
2018-11-13T18:20:45.971Z,84.60
2018-11-13T18:23:15.275Z,84.50
2018-11-13T18:25:44.694Z,84.30
2018-11-13T18:28:14.401Z,84.20
2018-11-13T18:30:43.660Z,84.10
2018-11-13T18:33:13.380Z,84.00
2018-11-13T18:35:42.837Z,84.20
2018-11-13T18:38:13.722Z,84.40
2018-11-13T18:40:43.113Z,84.60
2018-11-13T18:43:12.627Z,84.90
2018-11-13T18:45:42.707Z,85.00
2018-11-13T18:48:12.240Z,85.20
2018-11-13T18:50:43.099Z,85.50
2018-11-13T18:53:12.291Z,85.60
2018-11-13T18:55:42.212Z,85.60
2018-11-13T18:58:11.799Z,85.80
2018-11-13T19:00:41.443Z,84.90
2018-11-13T19:03:11.754Z,83.90
2018-11-13T19:05:42.002Z,83.70
2018-11-13T19:08:11.149Z,83.20
2018-11-13T19:10:42.290Z,82.90
2018-11-13T19:13:19.657Z,82.60
2018-11-13T19:15:56.430Z,82.50
2018-11-13T19:18:25.714Z,82.40
2018-11-13T19:20:54.787Z,82.20
2018-11-13T19:23:24.130Z,82.20
2018-11-13T19:25:53.672Z,82.30
2018-11-13T19:28:22.831Z,82.20
2018-11-13T19:30:52.035Z,82.20
2018-11-13T19:33:21.145Z,82.20
2018-11-13T19:35:50.486Z,82.40
2018-11-13T19:38:19.790Z,82.60
2018-11-13T19:40:49.145Z,83.40
2018-11-13T19:43:18.454Z,82.90
2018-11-13T19:45:47.864Z,82.80
2018-11-13T19:48:17.631Z,82.60
2018-11-13T19:50:46.948Z,82.60
2018-11-13T19:53:16.530Z,82.60
2018-11-13T19:55:45.957Z,82.70
2018-11-13T19:58:15.627Z,82.90
2018-11-13T20:00:45.047Z,82.90
2018-11-13T20:03:14.239Z,83.20
2018-11-13T20:05:43.605Z,83.60
2018-11-13T20:08:13.024Z,83.80
2018-11-13T20:10:42.715Z,84.10
2018-11-13T20:13:12.227Z,84.20
2018-11-13T20:15:41.845Z,84.20
2018-11-13T20:18:11.405Z,84.30
2018-11-13T20:20:40.718Z,84.30
2018-11-13T20:23:10.710Z,84.40
2018-11-13T20:25:39.901Z,84.50
2018-11-13T20:28:09.252Z,84.50
2018-11-13T20:30:42.481Z,85.10
2018-11-13T20:33:11.865Z,84.50
2018-11-13T20:35:41.551Z,84.40
2018-11-13T20:38:10.880Z,84.40
2018-11-13T20:40:40.282Z,84.50
2018-11-13T20:43:12.163Z,84.30
2018-11-13T20:45:41.276Z,84.30
2018-11-13T20:48:11.381Z,84.20
2018-11-13T20:50:40.792Z,84.30
2018-11-13T20:53:10.166Z,84.20
2018-11-13T20:55:39.558Z,83.50
2018-11-13T20:58:08.941Z,84.20
2018-11-13T21:00:38.477Z,84.20
2018-11-13T21:03:08.528Z,84.20
2018-11-13T21:05:37.925Z,84.20
2018-11-13T21:08:07.647Z,84.40
2018-11-13T21:10:38.667Z,85.20
2018-11-13T21:13:08.758Z,84.40
2018-11-13T21:15:38.134Z,84.40
2018-11-13T21:18:07.503Z,84.70
2018-11-13T21:20:36.997Z,85.80
2018-11-13T21:23:06.367Z,85.40
2018-11-13T21:25:35.811Z,85.70
2018-11-13T21:28:05.189Z,85.70
2018-11-13T21:30:34.686Z,86.10
2018-11-13T21:33:04.011Z,86.50
2018-11-13T21:35:33.278Z,86.60
2018-11-13T21:38:02.696Z,86.50
2018-11-13T21:40:32.267Z,86.30
2018-11-13T21:43:01.472Z,86.00
2018-11-13T21:45:30.728Z,85.90
2018-11-13T21:48:00.331Z,85.70
2018-11-13T21:50:30.326Z,85.60
2018-11-13T21:52:59.534Z,85.50
2018-11-13T21:55:29.623Z,85.40
2018-11-13T21:57:58.991Z,85.30
2018-11-13T22:00:30.010Z,85.20
2018-11-13T22:03:03.106Z,85.00
2018-11-13T22:05:33.289Z,85.30
2018-11-13T22:08:02.605Z,84.70
2018-11-13T22:10:31.956Z,84.50
2018-11-13T22:13:01.162Z,84.40
2018-11-13T22:15:31.138Z,84.40
2018-11-13T22:18:01.039Z,84.40
2018-11-13T22:20:30.030Z,84.30
2018-11-13T22:23:00.368Z,84.30
2018-11-13T22:25:29.638Z,84.30
2018-11-13T22:27:59.574Z,84.30
2018-11-13T22:30:30.508Z,84.40
2018-11-13T22:33:00.206Z,84.40
2018-11-13T22:35:29.806Z,84.30
2018-11-13T22:37:59.113Z,84.30
2018-11-13T22:40:29.311Z,84.50
2018-11-13T22:42:59.162Z,84.70
2018-11-13T22:45:29.388Z,84.70
2018-11-13T22:47:59.054Z,84.70
2018-11-13T22:50:36.916Z,84.90
2018-11-13T22:53:06.177Z,85.10
2018-11-13T22:55:35.677Z,85.40
2018-11-13T22:58:04.826Z,85.60
2018-11-13T23:00:49.891Z,85.70
2018-11-13T23:03:20.164Z,85.90
2018-11-13T23:05:50.370Z,86.10
2018-11-13T23:08:21.115Z,86.20
2018-11-13T23:10:50.850Z,86.40
2018-11-13T23:13:20.106Z,86.40
2018-11-13T23:15:49.326Z,86.50
2018-11-13T23:18:18.524Z,86.60
2018-11-13T23:20:47.822Z,86.50
2018-11-13T23:23:17.330Z,86.50
2018-11-13T23:25:46.756Z,86.50
2018-11-13T23:28:16.066Z,86.50
2018-11-13T23:30:45.571Z,86.40
2018-11-13T23:33:15.082Z,86.20
2018-11-13T23:35:44.382Z,86.10
2018-11-13T23:38:13.647Z,85.80
2018-11-13T23:40:43.076Z,85.60
2018-11-13T23:43:12.407Z,85.50
2018-11-13T23:45:41.653Z,85.40
2018-11-13T23:48:10.817Z,85.30
2018-11-13T23:50:40.153Z,85.10
2018-11-13T23:53:09.543Z,85.40
2018-11-13T23:55:39.005Z,84.90
2018-11-13T23:58:08.258Z,84.80
